createdAt,value
2019-04-20T00:01:48.578Z,7.60
2019-04-20T00:04:22.565Z,7.70
2019-04-20T00:06:49.789Z,7.60
2019-04-20T00:09:19.420Z,7.70
2019-04-20T00:11:53.584Z,7.50
2019-04-20T00:14:19.231Z,7.50
2019-04-20T00:16:44.188Z,7.40
2019-04-20T00:19:22.533Z,7.40
2019-04-20T00:21:57.744Z,7.40
2019-04-20T00:24:23.360Z,7.40
2019-04-20T00:29:35.276Z,7.60
2019-04-20T00:32:00.487Z,7.50
2019-04-20T00:34:24.573Z,7.60
2019-04-20T00:36:47.443Z,7.50
2019-04-20T00:39:17.201Z,7.30
2019-04-20T00:41:51.951Z,7.10
2019-04-20T00:44:22.065Z,7.10
2019-04-20T00:46:55.562Z,7.30
2019-04-20T00:49:27.599Z,7.20
2019-04-20T00:52:00.479Z,7.00
2019-04-20T00:54:11.588Z,6.90
2019-04-20T00:56:39.360Z,7.00
2019-04-20T00:59:20.524Z,7.10
2019-04-20T01:01:52.332Z,6.90
2019-04-20T01:04:26.902Z,6.80
2019-04-20T01:07:04.578Z,6.60
2019-04-20T01:09:24.622Z,6.60
2019-04-20T01:11:52.876Z,6.80
2019-04-20T01:14:27.255Z,6.80
2019-04-20T01:16:56.935Z,6.80
2019-04-20T01:19:20.576Z,6.80
2019-04-20T01:21:54.854Z,6.80
2019-04-20T01:24:24.869Z,6.80
2019-04-20T01:29:26.372Z,6.40
2019-04-20T01:32:02.205Z,6.40
2019-04-20T01:34:32.221Z,6.50
2019-04-20T01:37:02.974Z,6.60
2019-04-20T01:39:28.422Z,6.50
2019-04-20T01:41:49.966Z,6.40
2019-04-20T01:44:24.578Z,6.20
2019-04-20T01:46:54.861Z,6.30
2019-04-20T01:49:21.001Z,6.40
2019-04-20T01:51:57.499Z,6.30
2019-04-20T01:54:34.058Z,6.40
2019-04-20T01:56:58.037Z,6.40
2019-04-20T01:59:31.995Z,6.50
2019-04-20T02:02:09.623Z,6.40
2019-04-20T02:04:40.412Z,6.30
2019-04-20T02:07:06.659Z,6.00
2019-04-20T02:09:37.875Z,6.10
2019-04-20T02:12:08.251Z,6.10
2019-04-20T02:14:41.193Z,6.20
2019-04-20T02:17:11.739Z,6.00
2019-04-20T02:19:52.624Z,6.00
2019-04-20T02:22:13.614Z,5.90
2019-04-20T02:24:30.006Z,5.90
2019-04-20T02:26:57.956Z,5.80
2019-04-20T02:29:52.030Z,5.80
2019-04-20T02:32:26.556Z,5.90
2019-04-20T02:35:01.503Z,5.70
2019-04-20T02:37:59.857Z,5.70
2019-04-20T02:40:19.264Z,5.60
2019-04-20T02:46:15.513Z,5.70
2019-04-20T02:47:47.162Z,5.70
2019-04-20T02:50:13.868Z,5.60
2019-04-20T02:52:49.029Z,5.60
2019-04-20T02:57:49.375Z,5.30
2019-04-20T03:00:19.436Z,5.20
2019-04-20T03:02:23.572Z,5.10
2019-04-20T03:04:47.162Z,5.10
2019-04-20T03:07:19.698Z,5.10
2019-04-20T03:09:58.274Z,5.30
2019-04-20T03:12:33.550Z,5.30
2019-04-20T03:14:50.309Z,5.30
2019-04-20T03:17:29.723Z,5.30
2019-04-20T03:19:47.633Z,5.30
2019-04-20T03:22:33.517Z,5.10
2019-04-20T03:24:55.401Z,5.10
2019-04-20T03:27:19.196Z,5.10
2019-04-20T03:29:55.259Z,5.10
2019-04-20T03:37:33.401Z,5.00
2019-04-20T03:39:48.856Z,4.80
2019-04-20T03:42:05.126Z,4.80
2019-04-20T03:44:34.265Z,4.90
2019-04-20T03:47:07.759Z,4.90
2019-04-20T03:49:54.860Z,4.80
2019-04-20T03:52:27.455Z,4.80
2019-04-20T03:55:03.138Z,4.70
2019-04-20T03:57:49.521Z,4.60
2019-04-20T04:00:24.912Z,4.60
2019-04-20T04:03:12.952Z,4.50
2019-04-20T04:05:42.543Z,4.60
2019-04-20T04:08:06.190Z,4.60
2019-04-20T04:10:36.394Z,4.50
2019-04-20T04:13:07.250Z,4.30
2019-04-20T04:15:36.219Z,4.40
2019-04-20T04:18:13.599Z,4.40
2019-04-20T04:20:43.624Z,4.40
2019-04-20T04:23:22.011Z,4.40
2019-04-20T04:25:58.378Z,4.30
2019-04-20T04:28:31.428Z,4.40
2019-04-20T04:31:04.184Z,4.30
2019-04-20T04:35:59.304Z,4.30
2019-04-20T04:38:37.843Z,4.30
2019-04-20T04:43:34.446Z,4.40
2019-04-20T04:45:44.714Z,4.20
2019-04-20T04:48:27.449Z,4.20
2019-04-20T04:50:56.089Z,4.10
2019-04-20T04:53:30.338Z,4.00
2019-04-20T04:55:57.515Z,4.30
2019-04-20T04:58:17.726Z,4.40
2019-04-20T05:00:46.643Z,4.40
2019-04-20T05:03:35.865Z,4.40
2019-04-20T05:06:08.888Z,4.30
2019-04-20T05:08:25.015Z,4.30
2019-04-20T05:10:47.877Z,4.30
2019-04-20T05:13:15.807Z,4.30
2019-04-20T05:15:58.299Z,4.30
2019-04-20T05:18:41.193Z,4.20
2019-04-20T05:21:04.424Z,4.40
2019-04-20T05:23:41.016Z,4.60
2019-04-20T05:26:39.837Z,4.70
2019-04-20T05:28:58.955Z,4.70
2019-04-20T05:31:18.673Z,4.70
2019-04-20T05:34:08.502Z,4.90
2019-04-20T05:36:40.047Z,5.00
2019-04-20T05:39:14.463Z,5.30
2019-04-20T05:41:32.699Z,5.40
2019-04-20T05:43:59.801Z,5.60
2019-04-20T05:46:32.089Z,5.80
2019-04-20T05:49:13.792Z,5.80
2019-04-20T05:51:40.913Z,6.00
2019-04-20T05:54:05.705Z,6.10
2019-04-20T05:56:37.229Z,6.30
2019-04-20T06:01:31.786Z,6.70
2019-04-20T06:03:57.889Z,6.90
2019-04-20T06:06:32.827Z,7.20
2019-04-20T06:11:31.684Z,7.50
2019-04-20T06:13:50.547Z,7.70
2019-04-20T06:16:40.988Z,8.00
2019-04-20T06:19:14.284Z,8.20
2019-04-20T06:21:50.379Z,8.40
2019-04-20T06:24:20.769Z,8.70
2019-04-20T06:26:56.570Z,8.70
2019-04-20T06:29:15.682Z,9.00
2019-04-20T06:31:48.659Z,9.10
2019-04-20T06:34:30.128Z,9.40
2019-04-20T06:36:49.780Z,9.40
2019-04-20T06:39:41.491Z,9.60
2019-04-20T06:49:33.157Z,10.50
2019-04-20T06:52:12.974Z,10.70
2019-04-20T06:54:36.098Z,11.20
2019-04-20T06:57:07.302Z,11.20
2019-04-20T06:59:38.954Z,11.50
2019-04-20T07:02:11.554Z,11.70
2019-04-20T07:04:41.987Z,11.70
2019-04-20T07:09:49.597Z,12.20
2019-04-20T07:12:02.978Z,12.40
2019-04-20T07:14:27.472Z,12.50
2019-04-20T07:17:24.449Z,12.80
2019-04-20T07:19:51.782Z,13.10
2019-04-20T07:25:12.834Z,14.20
2019-04-20T07:27:22.905Z,14.40
2019-04-20T07:30:08.085Z,14.70
2019-04-20T07:32:17.769Z,15.00
2019-04-20T07:34:51.584Z,15.30
2019-04-20T07:37:49.767Z,15.70
2019-04-20T07:39:55.220Z,16.00
2019-04-20T07:42:29.000Z,16.10
2019-04-20T07:44:58.042Z,16.30
2019-04-20T07:49:48.308Z,16.60
2019-04-20T07:51:59.506Z,16.80
2019-04-20T07:57:14.597Z,17.20
2019-04-20T07:59:39.739Z,17.30
2019-04-20T08:02:38.132Z,17.60
2019-04-20T08:05:04.390Z,17.70
2019-04-20T08:07:35.147Z,18.00
2019-04-20T08:09:55.700Z,18.10
2019-04-20T08:12:41.755Z,18.20
2019-04-20T08:15:13.402Z,17.90
2019-04-20T08:20:05.744Z,18.30
2019-04-20T08:22:42.116Z,18.40
2019-04-20T08:25:01.946Z,18.50
2019-04-20T08:27:19.429Z,18.70
2019-04-20T08:30:04.915Z,18.80
2019-04-20T08:32:53.915Z,18.50
2019-04-20T08:43:15.180Z,19.40
2019-04-20T08:45:34.899Z,19.50
2019-04-20T08:50:29.614Z,19.90
2019-04-20T08:53:08.898Z,20.00
2019-04-20T08:55:23.922Z,20.10
2019-04-20T08:57:37.944Z,20.30
2019-04-20T09:00:08.804Z,20.30
2019-04-20T09:02:36.906Z,20.50
2019-04-20T09:05:13.575Z,20.60
2019-04-20T09:07:48.933Z,20.70
2019-04-20T09:12:54.845Z,20.80
2019-04-20T09:15:08.246Z,21.00
2019-04-20T09:17:48.616Z,21.20
2019-04-20T09:20:16.164Z,21.50
2019-04-20T09:23:02.181Z,21.40
2019-04-20T09:25:48.657Z,21.60
2019-04-20T09:28:11.646Z,21.60
2019-04-20T09:33:41.776Z,21.80
2019-04-20T09:36:09.753Z,22.00
2019-04-20T09:38:41.837Z,22.30
2019-04-20T09:41:13.759Z,22.20
2019-04-20T09:43:41.167Z,22.40
2019-04-20T09:46:10.151Z,22.50
2019-04-20T09:48:55.574Z,22.50
2019-04-20T09:51:32.942Z,22.30
2019-04-20T09:54:01.101Z,22.00
2019-04-20T09:56:32.376Z,22.10
2019-04-20T09:59:08.396Z,22.60
2019-04-20T10:03:45.603Z,23.00
2019-04-20T10:06:13.823Z,23.30
2019-04-20T10:08:50.661Z,23.40
2019-04-20T10:11:11.764Z,23.80
2019-04-20T10:13:40.476Z,24.00
2019-04-20T10:16:08.219Z,23.50
2019-04-20T10:18:41.399Z,23.50
2019-04-20T10:21:05.449Z,23.80
2019-04-20T10:23:34.453Z,23.90
2019-04-20T10:33:27.866Z,25.60
2019-04-20T10:35:55.702Z,26.00
2019-04-20T10:38:34.001Z,26.10
2019-04-20T10:41:09.508Z,26.10
2019-04-20T10:43:30.209Z,26.20
2019-04-20T10:45:59.194Z,26.30
2019-04-20T10:53:23.717Z,26.70
2019-04-20T10:58:19.724Z,27.20
2019-04-20T11:00:49.887Z,27.40
2019-04-20T11:03:17.824Z,28.00
2019-04-20T11:05:46.801Z,27.20
2019-04-20T11:08:22.401Z,27.10
2019-04-20T11:11:00.246Z,27.60
2019-04-20T11:13:19.693Z,28.40
2019-04-20T11:15:48.419Z,29.00
2019-04-20T11:18:17.587Z,28.90
2019-04-20T11:20:45.682Z,29.20
2019-04-20T11:23:13.980Z,29.60
2019-04-20T11:25:42.133Z,29.40
2019-04-20T11:28:10.209Z,29.50
2019-04-20T11:30:38.386Z,29.70
2019-04-20T11:35:37.652Z,28.20
2019-04-20T11:38:05.022Z,28.60
2019-04-20T11:43:01.682Z,29.40
2019-04-20T11:45:30.826Z,29.60
2019-04-20T11:47:58.719Z,29.30
2019-04-20T11:50:27.497Z,29.10
2019-04-20T11:52:55.379Z,29.10
2019-04-20T11:55:24.281Z,29.40
2019-04-20T11:57:54.191Z,29.80
2019-04-20T12:00:25.296Z,30.40
2019-04-20T12:03:19.460Z,30.50
2019-04-20T12:05:44.512Z,30.60
2019-04-20T12:08:09.242Z,31.00
2019-04-20T12:10:37.243Z,30.20
2019-04-20T12:13:05.882Z,29.20
2019-04-20T12:15:36.566Z,30.00
2019-04-20T12:18:05.321Z,30.60
2019-04-20T12:20:34.485Z,30.80
2019-04-20T12:23:02.418Z,30.80
2019-04-20T12:25:34.187Z,31.20
2019-04-20T12:28:05.362Z,31.30
2019-04-20T12:30:33.487Z,30.80
2019-04-20T12:35:30.315Z,31.00
2019-04-20T12:37:58.938Z,30.90
2019-04-20T12:40:28.034Z,31.40
2019-04-20T12:42:57.107Z,31.60
2019-04-20T12:45:25.916Z,31.60
2019-04-20T12:47:53.804Z,31.60
2019-04-20T12:50:21.724Z,32.70
2019-04-20T12:52:50.316Z,32.70
2019-04-20T12:55:18.825Z,32.60
2019-04-20T12:57:46.997Z,32.50
2019-04-20T13:00:15.588Z,32.80
2019-04-20T13:02:43.370Z,33.20
2019-04-20T13:05:11.279Z,33.00
2019-04-20T13:07:44.856Z,32.10
2019-04-20T13:10:11.577Z,31.00
2019-04-20T13:12:42.472Z,31.60
2019-04-20T13:15:32.118Z,31.70
2019-04-20T13:18:01.225Z,32.20
2019-04-20T13:20:30.040Z,32.60
2019-04-20T13:22:59.356Z,32.90
2019-04-20T13:25:30.835Z,33.50
2019-04-20T13:27:58.971Z,33.70
2019-04-20T13:30:28.530Z,33.60
2019-04-20T13:32:57.484Z,33.50
2019-04-20T13:35:26.086Z,31.90
2019-04-20T13:37:56.086Z,31.40
2019-04-20T13:40:23.948Z,31.40
2019-04-20T13:42:51.928Z,31.80
2019-04-20T13:45:21.033Z,32.30
2019-04-20T13:47:49.051Z,32.20
2019-04-20T13:50:17.981Z,32.20
2019-04-20T13:52:46.872Z,32.10
2019-04-20T13:55:15.099Z,32.40
2019-04-20T13:58:01.260Z,32.80
2019-04-20T14:00:33.874Z,32.70
2019-04-20T14:03:16.381Z,33.30
2019-04-20T14:05:44.691Z,33.30
2019-04-20T14:08:21.072Z,33.50
2019-04-20T14:10:49.248Z,34.50
2019-04-20T14:13:20.104Z,34.60
2019-04-20T14:15:47.143Z,33.90
2019-04-20T14:18:22.860Z,32.70
2019-04-20T14:20:52.070Z,33.30
2019-04-20T14:23:21.067Z,34.50
2019-04-20T14:25:49.148Z,33.30
2019-04-20T14:28:18.680Z,33.30
2019-04-20T14:30:47.757Z,33.90
2019-04-20T14:33:16.869Z,34.60
2019-04-20T14:35:45.136Z,34.30
2019-04-20T14:38:22.195Z,34.30
2019-04-20T14:40:50.346Z,34.60
2019-04-20T14:43:19.373Z,34.80
2019-04-20T14:45:47.228Z,34.90
2019-04-20T14:48:14.854Z,35.00
2019-04-20T14:50:43.441Z,34.90
2019-04-20T14:53:11.530Z,34.90
2019-04-20T14:55:39.675Z,34.50
2019-04-20T14:58:11.240Z,34.10
2019-04-20T15:00:59.009Z,34.10
2019-04-20T15:03:28.469Z,33.80
2019-04-20T15:05:57.743Z,33.60
2019-04-20T15:08:26.887Z,33.30
2019-04-20T15:10:54.650Z,33.70
2019-04-20T15:13:22.552Z,33.80
2019-04-20T15:15:50.677Z,32.50
2019-04-20T15:18:29.255Z,32.40
2019-04-20T15:20:59.522Z,32.60
2019-04-20T15:23:27.885Z,31.90
2019-04-20T15:25:55.677Z,31.60
2019-04-20T15:28:24.141Z,30.40
2019-04-20T15:30:52.160Z,31.30
2019-04-20T15:33:20.965Z,31.10
2019-04-20T15:35:50.234Z,31.10
2019-04-20T15:38:22.982Z,31.30
2019-04-20T15:40:51.148Z,31.10
2019-04-20T15:43:21.532Z,31.40
2019-04-20T15:45:49.472Z,31.50
2019-04-20T15:48:19.917Z,32.20
2019-04-20T15:50:47.853Z,32.20
2019-04-20T15:53:15.698Z,32.20
2019-04-20T15:55:45.242Z,31.60
2019-04-20T15:58:12.755Z,31.50
2019-04-20T16:00:40.671Z,32.00
2019-04-20T16:03:09.968Z,31.10
2019-04-20T16:05:45.245Z,31.60
2019-04-20T16:08:36.739Z,31.60
2019-04-20T16:11:04.995Z,31.10
2019-04-20T16:13:37.966Z,31.40
2019-04-20T16:16:03.701Z,31.60
2019-04-20T16:18:32.824Z,31.60
2019-04-20T16:21:09.198Z,31.90
2019-04-20T16:23:32.458Z,31.30
2019-04-20T16:26:17.712Z,31.20
2019-04-20T16:28:45.883Z,31.90
2019-04-20T16:31:15.324Z,31.30
2019-04-20T16:33:44.209Z,30.60
2019-04-20T16:36:12.344Z,31.00
2019-04-20T16:38:41.737Z,30.90
2019-04-20T16:41:10.433Z,30.10
2019-04-20T16:46:07.202Z,28.00
2019-04-20T16:48:44.340Z,27.50
2019-04-20T16:51:13.200Z,26.80
2019-04-20T16:53:41.393Z,26.10
2019-04-20T16:56:10.357Z,25.70
2019-04-20T16:58:38.283Z,25.30
2019-04-20T17:01:07.587Z,25.00
2019-04-20T17:03:44.358Z,24.50
2019-04-20T17:06:04.822Z,24.30
2019-04-20T17:11:01.556Z,24.00
2019-04-20T17:13:36.691Z,23.60
2019-04-20T17:15:59.568Z,23.50
2019-04-20T17:18:27.562Z,23.30
2019-04-20T17:20:56.764Z,23.20
2019-04-20T17:23:25.432Z,23.00
2019-04-20T17:25:53.159Z,22.90
2019-04-20T17:28:25.183Z,22.90
2019-04-20T17:31:03.256Z,22.70
2019-04-20T17:33:40.141Z,22.50
2019-04-20T17:36:10.925Z,22.50
2019-04-20T17:38:37.507Z,22.30
2019-04-20T17:41:16.703Z,22.20
2019-04-20T17:43:38.895Z,22.00
2019-04-20T17:48:42.186Z,21.80
2019-04-20T17:51:17.731Z,21.70
2019-04-20T17:53:54.802Z,21.50
2019-04-20T17:56:17.441Z,21.40
2019-04-20T18:01:32.920Z,21.10
2019-04-20T18:09:18.487Z,20.40
2019-04-20T18:11:41.995Z,20.10
2019-04-20T18:14:17.344Z,20.10
2019-04-20T18:19:16.979Z,19.60
2019-04-20T18:24:14.527Z,19.90
2019-04-20T18:26:57.671Z,19.80
2019-04-20T18:29:26.316Z,19.70
2019-04-20T18:31:41.781Z,19.60
2019-04-20T18:34:14.480Z,19.50
2019-04-20T18:36:44.058Z,19.40
2019-04-20T18:39:14.785Z,19.30
2019-04-20T18:41:48.579Z,19.30
2019-04-20T18:44:10.829Z,19.30
2019-04-20T18:47:02.762Z,19.20
2019-04-20T18:51:48.045Z,19.10
2019-04-20T18:54:21.420Z,19.00
2019-04-20T18:59:31.868Z,18.90
2019-04-20T19:01:55.112Z,18.80
2019-04-20T19:04:23.707Z,18.80
2019-04-20T19:06:52.099Z,18.80
2019-04-20T19:09:24.966Z,18.80
2019-04-20T19:11:55.880Z,18.70
2019-04-20T19:17:06.747Z,18.60
2019-04-20T19:19:37.521Z,18.60
2019-04-20T19:21:58.392Z,18.40
2019-04-20T19:24:29.283Z,18.40
2019-04-20T19:27:00.438Z,18.30
2019-04-20T19:29:35.644Z,18.30
2019-04-20T19:32:18.220Z,18.20
2019-04-20T19:34:42.936Z,18.20
2019-04-20T19:37:10.142Z,18.00
2019-04-20T19:39:50.976Z,18.00
2019-04-20T19:42:20.725Z,18.00
2019-04-20T19:44:49.520Z,17.80
2019-04-20T19:49:43.844Z,17.70
2019-04-20T19:52:36.682Z,17.60
2019-04-20T19:54:46.490Z,17.40
2019-04-20T19:57:16.328Z,17.30
2019-04-20T19:59:36.701Z,17.10
2019-04-20T20:01:57.896Z,16.90
2019-04-20T20:04:25.892Z,16.80
2019-04-20T20:09:47.527Z,16.60
2019-04-20T20:12:12.249Z,16.40
2019-04-20T20:17:26.780Z,15.80
2019-04-20T20:20:03.796Z,15.70
2019-04-20T20:24:33.394Z,15.30
2019-04-20T20:27:06.152Z,15.10
2019-04-20T20:29:56.916Z,15.10
2019-04-20T20:32:21.449Z,14.80
2019-04-20T20:34:45.243Z,14.80
2019-04-20T20:37:18.158Z,14.70
2019-04-20T20:39:51.089Z,14.30
2019-04-20T20:42:23.228Z,14.30
2019-04-20T20:44:49.871Z,14.20
2019-04-20T20:47:31.352Z,14.20
2019-04-20T20:50:03.151Z,14.10
2019-04-20T20:52:29.121Z,14.20
2019-04-20T20:54:49.443Z,13.90
2019-04-20T20:57:11.361Z,14.00
2019-04-20T20:59:43.022Z,13.80
2019-04-20T21:02:12.408Z,13.80
2019-04-20T21:04:35.418Z,13.60
2019-04-20T21:07:04.482Z,13.40
2019-04-20T21:09:41.677Z,13.40
2019-04-20T21:12:14.918Z,13.40
2019-04-20T21:14:42.152Z,13.40
2019-04-20T21:17:16.197Z,13.20
2019-04-20T21:19:55.009Z,13.10
2019-04-20T21:24:51.075Z,12.90
2019-04-20T21:27:21.948Z,12.90
2019-04-20T21:29:52.556Z,13.10
2019-04-20T21:32:19.859Z,12.80
2019-04-20T21:34:52.110Z,12.80
2019-04-20T21:37:20.030Z,12.50
2019-04-20T21:39:52.259Z,12.40
2019-04-20T21:42:19.429Z,12.30
2019-04-20T21:44:48.363Z,12.30
2019-04-20T21:47:15.683Z,12.20
2019-04-20T21:49:55.725Z,12.10
2019-04-20T21:52:22.853Z,12.30
2019-04-20T21:54:42.356Z,12.30
2019-04-20T21:57:12.560Z,12.20
2019-04-20T21:59:44.904Z,12.10
2019-04-20T22:02:15.276Z,12.00
2019-04-20T22:04:39.433Z,12.10
2019-04-20T22:07:08.078Z,12.00
2019-04-20T22:09:41.302Z,11.90
2019-04-20T22:17:03.654Z,11.10
2019-04-20T22:19:48.960Z,10.90
2019-04-20T22:22:18.491Z,10.80
2019-04-20T22:24:50.583Z,10.80
2019-04-20T22:29:38.499Z,10.50
2019-04-20T22:32:11.560Z,10.30
2019-04-20T22:34:35.707Z,10.00
2019-04-20T22:37:04.406Z,10.10
2019-04-20T22:39:42.159Z,10.20
2019-04-20T22:42:11.283Z,10.30
2019-04-20T22:44:36.782Z,10.20
2019-04-20T22:47:12.518Z,10.40
2019-04-20T22:49:48.262Z,10.30
2019-04-20T22:52:18.036Z,10.10
2019-04-20T22:54:47.840Z,10.00
2019-04-20T22:59:44.759Z,9.30
2019-04-20T23:02:02.367Z,9.20
2019-04-20T23:04:30.866Z,9.30
2019-04-20T23:06:59.150Z,9.20
2019-04-20T23:09:26.926Z,9.20
2019-04-20T23:14:24.616Z,8.50
2019-04-20T23:16:54.440Z,8.60
2019-04-20T23:19:32.060Z,8.80
2019-04-20T23:21:57.534Z,8.80
2019-04-20T23:24:21.889Z,8.90
2019-04-20T23:26:50.818Z,8.70
2019-04-20T23:29:21.424Z,9.00
2019-04-20T23:31:55.547Z,8.80
2019-04-20T23:34:22.806Z,8.70
2019-04-20T23:36:50.207Z,8.70
2019-04-20T23:39:17.008Z,8.70
2019-04-20T23:41:53.660Z,8.70
2019-04-20T23:44:19.156Z,8.60
2019-04-20T23:47:07.761Z,8.50
2019-04-20T23:49:50.628Z,8.70
2019-04-20T23:52:26.076Z,8.70
2019-04-20T23:54:33.640Z,8.80
2019-04-20T23:56:59.825Z,8.60
2019-04-20T23:59:41.119Z,8.50
